Home   Weather   Netherlands   Amsterdam   Past weeks
Flag for Netherlands

Past Weather in Amsterdam, Netherlands — Yesterday and Last 2 Weeks

Currently: 75 °F. Clear. (Weather station: Amsterdam Schiphol Airport, Netherlands). See more current weather

Past Weather in Amsterdam — Graph

°F

Amsterdam Temperature Yesterday

Maximum temperature yesterday: 82 °F (at 5:25 pm)
Minimum temperature yesterday: 61 °F (at 5:25 am)
Average temperature yesterday: 72 °F

High & Low Weather Summary for the Past Weeks

 TemperatureHumidityPressure
High86 °F (Aug 11, 4:25 pm)100% (Jul 30, 4:25 am)30.39 "Hg (Jul 30, 4:25 am)
Low50 °F (Aug 6, 5:25 am)31% (Aug 11, 4:25 pm)29.86 "Hg (Aug 4, 6:25 am)
Average67 °F70%30.13 "Hg
* Reported Jul 27 9:25 pm — Aug 11 9:55 pm, Amsterdam. Weather by CustomWeather, © 2022

Note: Actual official high and low records may vary slightly from our data, if they occured in-between our weather recording intervals... More about our weather records

Amsterdam Weather History for the Previous 24 Hours

Scroll right to see more
 ConditionsComfort  
Time TempWeatherWind HumidityBarometerVisibility
9:55 pm
Thu, Aug 11
77 °FPassing clouds.12 mph54%30.12 "HgN/A
9:25 pm77 °FPassing clouds.14 mph54%30.12 "HgN/A
8:55 pm79 °FPassing clouds.14 mph51%30.12 "HgN/A
8:25 pm81 °FPassing clouds.12 mph45%30.12 "HgN/A
7:55 pm82 °FPassing clouds.14 mph37%30.12 "HgN/A
7:25 pm82 °FSunny.13 mph40%30.12 "Hg10 mi
6:55 pm84 °FPassing clouds.13 mph37%30.12 "HgN/A
6:25 pm84 °FSunny.14 mph33%30.12 "Hg10 mi
5:55 pm84 °FPassing clouds.14 mph33%30.12 "HgN/A
5:25 pm86 °FPassing clouds.14 mph33%30.12 "HgN/A
4:55 pm84 °FPassing clouds.14 mph33%30.12 "HgN/A
4:25 pm86 °FPassing clouds.10 mph31%30.15 "HgN/A
2:55 pm84 °FPassing clouds.9 mph37%30.15 "HgN/A
2:25 pm84 °FPassing clouds.8 mph35%30.18 "HgN/A
1:55 pm84 °FPassing clouds.10 mph37%30.18 "HgN/A
12:55 pm82 °FPassing clouds.9 mph40%30.18 "HgN/A
12:25 pm81 °FPassing clouds.9 mph39%30.18 "HgN/A
11:55 am81 °FPassing clouds.8 mph39%30.18 "HgN/A
11:25 am79 °FPassing clouds.8 mph42%30.21 "HgN/A
10:55 am79 °FPassing clouds.8 mph45%30.21 "HgN/A
10:25 am75 °FPassing clouds.6 mph54%30.21 "HgN/A
9:55 am73 °FPassing clouds.7 mph57%30.21 "HgN/A
8:55 am72 °FPassing clouds.7 mph65%30.21 "HgN/A
7:55 am68 °FSunny.5 mph78%30.21 "Hg10 mi
6:55 am63 °FSunny.2 mph88%30.21 "Hg10 mi
6:25 am63 °FSunny.5 mph88%30.21 "Hg10 mi
5:55 am63 °FClear.5 mph88%30.21 "Hg10 mi
4:55 am63 °FClear.7 mph88%30.21 "Hg10 mi
4:25 am64 °FClear.7 mph83%30.21 "Hg10 mi
3:55 am66 °FClear.9 mph83%30.21 "Hg10 mi
3:25 am66 °FClear.9 mph83%30.21 "Hg10 mi
2:55 am66 °FClear.9 mph83%30.21 "Hg10 mi
1:25 am68 °FClear.10 mph83%30.21 "Hg10 mi
12:55 am70 °FClear.12 mph78%30.21 "Hg10 mi
12:25 am70 °FClear.10 mph83%30.21 "Hg10 mi
11:55 pm
Wed, Aug 10
70 °FPassing clouds.9 mph83%30.21 "HgN/A
11:25 pm70 °FPassing clouds.10 mph78%30.21 "HgN/A
Weather by CustomWeather, © 2022

See weather overview